Time;durP1;ratioP1;P1;durP2;ratioP2;P2;SDS_P1;SDS_P2;PMS_P1;PMS_P2;Temp;Humidity;BMP_temperature;BMP_pressure;BME280_temperature;BME280_humidity;BME280_pressure;Samples;Min_cycle;Max_cycle;Signal;HPM_P1;HPM_P2
2024/01/17 00:00:15;;;;;;;;;;;14.00;99.90;;;;;;5072036;28;19908;-70
2024/01/17 00:02:41;;;;;;;;;;;14.00;99.90;;;;;;5073546;28;20048;-70
2024/01/17 00:05:10;;;;;;;;;;;14.00;99.90;;;;;;5073478;28;19986;-69
2024/01/17 00:07:36;;;;;;;;;;;14.00;99.90;;;;;;5073427;28;19917;-70
2024/01/17 00:10:03;;;;;;;;;;;14.00;99.90;;;;;;5073294;28;19916;-70
2024/01/17 00:12:30;;;;;;;;;;;13.90;99.90;;;;;;5073690;28;19909;-70
2024/01/17 00:14:56;;;;;;;;;;;13.90;99.90;;;;;;5073385;28;19993;-70
2024/01/17 00:17:22;;;;;;;;;;;13.90;99.90;;;;;;5073297;28;20249;-70
2024/01/17 00:19:48;;;;;;;;;;;13.90;99.90;;;;;;5055290;28;19914;-70
2024/01/17 00:22:16;;;;;;;;;;;13.80;99.90;;;;;;5073084;28;19915;-70
2024/01/17 00:24:43;;;;;;;;;;;13.90;99.90;;;;;;5073033;28;19939;-70
2024/01/17 00:27:08;;;;;;;;;;;13.90;99.90;;;;;;5073289;28;19916;-70
2024/01/17 00:29:34;;;;;;;;;;;13.90;99.90;;;;;;5073185;28;19913;-69
2024/01/17 00:32:03;;;;;;;;;;;14.00;99.90;;;;;;5072891;28;20364;-70
2024/01/17 00:34:29;;;;;;;;;;;14.00;99.90;;;;;;5065001;28;19931;-70
2024/01/17 00:36:55;;;;;;;;;;;13.90;99.90;;;;;;5073154;28;20356;-69
2024/01/17 00:39:22;;;;;;;;;;;13.90;99.90;;;;;;5072528;28;20003;-70
2024/01/17 00:41:49;;;;;;;;;;;13.90;99.90;;;;;;5072975;28;20003;-70
2024/01/17 00:44:18;;;;;;;;;;;13.90;99.90;;;;;;5072792;28;20482;-68
2024/01/17 00:46:43;;;;;;;;;;;13.80;99.90;;;;;;5054467;28;20022;-70
2024/01/17 00:49:09;;;;;;;;;;;13.80;99.90;;;;;;5072640;28;20384;-70
2024/01/17 00:51:35;;;;;;;;;;;13.80;99.90;;;;;;5072971;28;20015;-69
2024/01/17 00:54:01;;;;;;;;;;;13.80;99.90;;;;;;5072437;28;19916;-70
2024/01/17 00:56:27;;;;;;;;;;;13.80;99.90;;;;;;5072956;28;19909;-70
2024/01/17 00:58:53;;;;;;;;;;;13.90;99.90;;;;;;5072657;28;19909;-69
2024/01/17 01:01:19;;;;;;;;;;;14.00;99.90;;;;;;5072478;28;20329;-69
2024/01/17 01:03:45;;;;;;;;;;;14.00;99.90;;;;;;5071416;28;19942;-67
2024/01/17 01:06:11;;;;;;;;;;;14.00;99.90;;;;;;5071671;28;19944;-69
2024/01/17 01:08:37;;;;;;;;;;;14.00;99.90;;;;;;5071287;28;20014;-66
2024/01/17 01:11:03;;;;;;;;;;;14.00;99.90;;;;;;5071391;28;19931;-69
2024/01/17 01:13:28;;;;;;;;;;;14.00;99.90;;;;;;5071223;28;19909;-69
2024/01/17 01:15:54;;;;;;;;;;;13.90;99.90;;;;;;5071406;28;19913;-69
2024/01/17 01:18:20;;;;;;;;;;;13.90;99.90;;;;;;5071308;28;20011;-69
2024/01/17 01:20:46;;;;;;;;;;;13.80;99.90;;;;;;5071302;28;19927;-68
2024/01/17 01:23:12;;;;;;;;;;;13.80;99.90;;;;;;5070970;28;19913;-69
2024/01/17 01:25:38;;;;;;;;;;;13.80;99.90;;;;;;5070976;28;19909;-68
2024/01/17 01:28:04;;;;;;;;;;;13.70;99.90;;;;;;5052508;28;19916;-71
2024/01/17 01:30:31;;;;;;;;;;;13.70;99.90;;;;;;5071016;28;20378;-68
2024/01/17 01:32:57;;;;;;;;;;;13.70;99.90;;;;;;5070934;28;20358;-69
2024/01/17 01:35:22;;;;;;;;;;;13.70;99.90;;;;;;5071082;28;19916;-69
2024/01/17 01:37:49;;;;;;;;;;;13.60;99.90;;;;;;5070962;28;20015;-69
2024/01/17 01:40:15;;;;;;;;;;;13.60;99.90;;;;;;5070665;28;19924;-66
2024/01/17 01:42:43;;;;;;;;;;;13.60;99.90;;;;;;5052800;28;19982;-70
2024/01/17 01:45:09;;;;;;;;;;;13.70;99.90;;;;;;5071161;28;19993;-69
2024/01/17 01:47:35;;;;;;;;;;;13.80;99.90;;;;;;5070732;28;20376;-69
2024/01/17 01:50:05;;;;;;;;;;;13.90;99.90;;;;;;5070953;28;19999;-69
2024/01/17 01:52:34;;;;;;;;;;;14.00;99.90;;;;;;5070738;28;20015;-70
2024/01/17 01:55:01;;;;;;;;;;;14.00;99.90;;;;;;5070406;28;19966;-69
2024/01/17 01:57:28;;;;;;;;;;;14.10;99.90;;;;;;5070557;28;19929;-69
2024/01/17 01:59:55;;;;;;;;;;;14.20;99.90;;;;;;5070516;28;19948;-69
2024/01/17 02:02:22;;;;;;;;;;;14.30;99.90;;;;;;5070775;28;20280;-69
2024/01/17 02:04:48;;;;;;;;;;;14.40;99.90;;;;;;5070475;28;19916;-69
2024/01/17 02:07:15;;;;;;;;;;;14.50;99.90;;;;;;5069918;28;20296;-69
2024/01/17 02:09:44;;;;;;;;;;;14.50;99.90;;;;;;5070223;28;19909;-69
2024/01/17 02:12:11;;;;;;;;;;;14.60;99.90;;;;;;5070310;28;19957;-68
2024/01/17 02:14:41;;;;;;;;;;;14.60;99.90;;;;;;5070293;28;19909;-70
2024/01/17 02:17:08;;;;;;;;;;;14.70;99.90;;;;;;5070396;28;19969;-69
2024/01/17 02:19:35;;;;;;;;;;;14.80;99.90;;;;;;5070357;28;19908;-69
2024/01/17 02:22:01;;;;;;;;;;;14.80;99.90;;;;;;5052039;28;20360;-69
2024/01/17 02:24:28;;;;;;;;;;;14.80;99.90;;;;;;5070074;28;19963;-69
2024/01/17 02:26:54;;;;;;;;;;;14.80;99.90;;;;;;5070018;28;19956;-69
2024/01/17 02:29:21;;;;;;;;;;;14.80;99.90;;;;;;5069965;28;20369;-69
2024/01/17 02:31:47;;;;;;;;;;;14.90;99.90;;;;;;5069928;28;20004;-68
2024/01/17 02:34:14;;;;;;;;;;;14.90;99.90;;;;;;5056144;28;20285;-69
2024/01/17 02:36:40;;;;;;;;;;;14.90;99.90;;;;;;5090344;28;20003;-69
2024/01/17 02:39:06;;;;;;;;;;;14.90;99.90;;;;;;5089616;28;20015;-66
2024/01/17 02:41:32;;;;;;;;;;;15.00;99.90;;;;;;5090431;28;20033;-69
2024/01/17 02:43:57;;;;;;;;;;;15.00;99.90;;;;;;5071708;28;19972;-69
2024/01/17 02:46:25;;;;;;;;;;;15.10;99.90;;;;;;5071541;28;19950;-69
2024/01/17 02:48:52;;;;;;;;;;;15.10;99.90;;;;;;5071529;28;19916;-69
2024/01/17 02:51:18;;;;;;;;;;;14.90;99.90;;;;;;5090034;28;19908;-69
2024/01/17 02:53:43;;;;;;;;;;;14.80;99.90;;;;;;5071630;28;19908;-69
2024/01/17 02:56:09;;;;;;;;;;;14.90;99.90;;;;;;5090012;28;20402;-69
2024/01/17 02:58:35;;;;;;;;;;;14.80;99.90;;;;;;5071586;28;19973;-66
2024/01/17 03:01:01;;;;;;;;;;;14.80;99.90;;;;;;5089855;28;20002;-70
2024/01/17 03:03:27;;;;;;;;;;;14.80;99.90;;;;;;5088806;28;19995;-69
2024/01/17 03:05:53;;;;;;;;;;;14.80;99.90;;;;;;5069798;28;19992;-70
2024/01/17 03:08:18;;;;;;;;;;;14.80;99.90;;;;;;5069530;28;20018;-69
2024/01/17 03:10:44;;;;;;;;;;;14.70;99.90;;;;;;5069155;28;19908;-70
2024/01/17 03:13:12;;;;;;;;;;;14.60;99.90;;;;;;5069533;28;20003;-69
2024/01/17 03:15:39;;;;;;;;;;;14.60;99.90;;;;;;5069328;28;19913;-69
2024/01/17 03:18:08;;;;;;;;;;;14.50;99.90;;;;;;5070816;28;19954;-68
2024/01/17 03:20:34;;;;;;;;;;;14.60;99.90;;;;;;5073145;28;19952;-69
2024/01/17 03:23:00;;;;;;;;;;;14.50;99.90;;;;;;5073010;28;20300;-66
2024/01/17 03:25:26;;;;;;;;;;;14.50;99.90;;;;;;5072903;28;19908;-70
2024/01/17 03:27:52;;;;;;;;;;;14.50;99.90;;;;;;5073082;28;19924;-69
2024/01/17 03:30:18;;;;;;;;;;;14.50;99.90;;;;;;5073488;28;19909;-69
2024/01/17 03:32:43;;;;;;;;;;;14.50;99.90;;;;;;5073086;28;20376;-69
2024/01/17 03:35:09;;;;;;;;;;;14.50;99.90;;;;;;5073026;28;19908;-69
2024/01/17 03:37:36;;;;;;;;;;;14.50;99.90;;;;;;5072856;28;19912;-67
2024/01/17 03:40:02;;;;;;;;;;;14.50;99.90;;;;;;5072605;28;20016;-69
2024/01/17 03:42:28;;;;;;;;;;;14.40;99.90;;;;;;5072866;28;19991;-69
2024/01/17 03:44:54;;;;;;;;;;;14.30;99.90;;;;;;5073067;28;20003;-69
2024/01/17 03:47:20;;;;;;;;;;;14.40;99.90;;;;;;5072701;28;19986;-69
2024/01/17 03:49:46;;;;;;;;;;;14.30;99.90;;;;;;5072830;28;20348;-68
2024/01/17 03:52:11;;;;;;;;;;;14.30;99.90;;;;;;5072858;28;19908;-71
2024/01/17 03:54:37;;;;;;;;;;;14.30;99.90;;;;;;5054081;28;19908;-69
2024/01/17 03:57:04;;;;;;;;;;;14.30;99.90;;;;;;5073250;28;19915;-69
2024/01/17 03:59:30;;;;;;;;;;;14.30;99.90;;;;;;5073351;28;19912;-68
2024/01/17 04:01:56;;;;;;;;;;;14.40;99.90;;;;;;5073199;28;20370;-69
2024/01/17 04:04:21;;;;;;;;;;;14.40;99.90;;;;;;5073115;28;19998;-69
2024/01/17 04:06:47;;;;;;;;;;;14.50;99.90;;;;;;5073254;28;19927;-69
2024/01/17 04:09:13;;;;;;;;;;;14.50;99.90;;;;;;5072969;28;20377;-70
2024/01/17 04:11:40;;;;;;;;;;;14.50;99.90;;;;;;5072875;28;20289;-69
2024/01/17 04:14:06;;;;;;;;;;;14.50;99.90;;;;;;5072905;28;19957;-69
2024/01/17 04:16:34;;;;;;;;;;;14.50;99.90;;;;;;5073392;28;19931;-69
2024/01/17 04:19:00;;;;;;;;;;;14.40;99.90;;;;;;5072870;28;19909;-68
2024/01/17 04:21:26;;;;;;;;;;;14.40;99.90;;;;;;5072762;28;20319;-69
2024/01/17 04:23:52;;;;;;;;;;;14.40;99.90;;;;;;5073428;28;20037;-69
2024/01/17 04:26:23;;;;;;;;;;;14.40;99.90;;;;;;5073687;28;20045;-69
2024/01/17 04:28:52;;;;;;;;;;;14.50;99.90;;;;;;5073253;28;19952;-69
2024/01/17 04:31:28;;;;;;;;;;;14.50;99.90;;;;;;5073876;28;20408;-71
2024/01/17 04:33:54;;;;;;;;;;;14.50;99.90;;;;;;5067267;28;19919;-67
2024/01/17 04:36:22;;;;;;;;;;;14.60;99.90;;;;;;5073807;28;20365;-68
2024/01/17 04:38:47;;;;;;;;;;;14.60;99.90;;;;;;5073174;28;20017;-67
2024/01/17 04:41:16;;;;;;;;;;;14.60;99.90;;;;;;5073595;28;19915;-68
2024/01/17 04:43:44;;;;;;;;;;;14.60;99.90;;;;;;5073578;28;19995;-67
2024/01/17 04:46:12;;;;;;;;;;;14.50;99.90;;;;;;5073669;28;19908;-67
2024/01/17 04:48:39;;;;;;;;;;;14.60;99.90;;;;;;5073343;28;19917;-67
2024/01/17 04:51:05;;;;;;;;;;;14.50;99.90;;;;;;5073586;28;20041;-67
2024/01/17 04:53:32;;;;;;;;;;;14.60;99.90;;;;;;5083382;28;19916;-68
2024/01/17 04:56:05;;;;;;;;;;;14.60;99.90;;;;;;5094490;28;19908;-68
2024/01/17 04:58:33;;;;;;;;;;;14.60;99.90;;;;;;5094755;28;19908;-68
2024/01/17 05:00:59;;;;;;;;;;;14.70;99.90;;;;;;5094526;28;19915;-68
2024/01/17 05:03:27;;;;;;;;;;;14.70;99.90;;;;;;5094092;28;20427;-67
2024/01/17 05:05:53;;;;;;;;;;;14.70;99.90;;;;;;5074206;28;19963;-67
2024/01/17 05:08:19;;;;;;;;;;;14.60;99.90;;;;;;5074288;28;19917;-68
2024/01/17 05:10:45;;;;;;;;;;;14.70;99.90;;;;;;5074188;28;19917;-67
2024/01/17 05:13:12;;;;;;;;;;;14.70;99.90;;;;;;5074926;28;19915;-68
2024/01/17 05:15:38;;;;;;;;;;;14.70;99.90;;;;;;5073978;28;19915;-68
2024/01/17 05:18:04;;;;;;;;;;;14.70;99.90;;;;;;5075092;28;19967;-67
2024/01/17 05:20:30;;;;;;;;;;;14.70;99.90;;;;;;5075212;28;19914;-68
2024/01/17 05:22:56;;;;;;;;;;;14.80;99.90;;;;;;5074940;28;20007;-68
2024/01/17 05:25:21;;;;;;;;;;;14.80;99.90;;;;;;5074651;28;20006;-68
2024/01/17 05:27:51;;;;;;;;;;;14.80;99.90;;;;;;5074951;28;20365;-68
2024/01/17 05:30:20;;;;;;;;;;;14.90;99.90;;;;;;5075003;28;19961;-68
2024/01/17 05:32:46;;;;;;;;;;;14.90;99.90;;;;;;5075143;28;20364;-67
2024/01/17 05:35:11;;;;;;;;;;;14.90;99.90;;;;;;5074670;28;19909;-68
2024/01/17 05:37:46;;;;;;;;;;;15.00;99.90;;;;;;5074610;28;19955;-67
2024/01/17 05:40:12;;;;;;;;;;;15.00;99.90;;;;;;5073554;28;19920;-68
2024/01/17 05:42:39;;;;;;;;;;;15.00;99.90;;;;;;5074519;28;19999;-68
2024/01/17 05:45:34;;;;;;;;;;;15.10;99.90;;;;;;5073671;28;19978;-64
2024/01/17 05:48:07;;;;;;;;;;;15.10;99.90;;;;;;5072744;28;20261;-68
2024/01/17 05:50:33;;;;;;;;;;;15.10;99.90;;;;;;5056405;28;19912;-68
2024/01/17 05:52:59;;;;;;;;;;;15.10;99.90;;;;;;5074219;28;19908;-67
2024/01/17 05:55:25;;;;;;;;;;;15.10;99.90;;;;;;5073905;28;20368;-68
2024/01/17 05:57:50;;;;;;;;;;;15.10;99.90;;;;;;5074153;28;19954;-68
2024/01/17 06:00:18;;;;;;;;;;;15.10;99.90;;;;;;5073933;28;20368;-69
2024/01/17 06:03:31;;;;;;;;;;;15.20;99.90;;;;;;5074327;28;19908;-63
2024/01/17 06:05:56;;;;;;;;;;;15.20;99.90;;;;;;5059423;28;19908;-69
2024/01/17 06:08:22;;;;;;;;;;;15.30;99.90;;;;;;5074090;28;20273;-70
2024/01/17 06:10:48;;;;;;;;;;;15.30;99.90;;;;;;5073585;28;19916;-68
2024/01/17 06:13:14;;;;;;;;;;;15.30;99.90;;;;;;5074240;28;19954;-68
2024/01/17 06:15:40;;;;;;;;;;;15.30;99.90;;;;;;5072743;28;19957;-69
2024/01/17 06:18:05;;;;;;;;;;;15.30;99.90;;;;;;5055126;28;19955;-68
2024/01/17 06:20:31;;;;;;;;;;;15.40;99.90;;;;;;5055799;28;19915;-70
2024/01/17 06:22:57;;;;;;;;;;;15.40;99.90;;;;;;5055560;28;19908;-68
2024/01/17 06:25:23;;;;;;;;;;;15.40;99.90;;;;;;5073175;28;19916;-68
2024/01/17 06:27:49;;;;;;;;;;;15.40;99.90;;;;;;5073276;28;20002;-68
2024/01/17 06:30:14;;;;;;;;;;;15.40;99.90;;;;;;5073284;28;19912;-69
2024/01/17 06:32:40;;;;;;;;;;;15.30;99.90;;;;;;5073308;28;20268;-69
2024/01/17 06:35:10;;;;;;;;;;;15.30;99.90;;;;;;5072751;28;20229;-70
2024/01/17 06:37:36;;;;;;;;;;;15.30;99.90;;;;;;5072988;28;19919;-69
2024/01/17 06:40:01;;;;;;;;;;;15.30;99.90;;;;;;5072726;28;20355;-69
2024/01/17 06:42:27;;;;;;;;;;;15.40;99.90;;;;;;5072931;28;20427;-70
2024/01/17 06:44:53;;;;;;;;;;;15.40;99.90;;;;;;5054647;28;19956;-70
2024/01/17 06:47:19;;;;;;;;;;;15.50;99.90;;;;;;5072995;28;19951;-69
2024/01/17 06:49:44;;;;;;;;;;;15.50;99.90;;;;;;5072594;28;19912;-69
2024/01/17 06:52:10;;;;;;;;;;;15.60;99.90;;;;;;5072495;28;19909;-68
2024/01/17 06:54:36;;;;;;;;;;;15.60;99.90;;;;;;5071097;28;19908;-68
2024/01/17 06:57:02;;;;;;;;;;;15.60;99.90;;;;;;5072106;28;19909;-68
2024/01/17 06:59:28;;;;;;;;;;;15.70;99.90;;;;;;5053977;28;19999;-70
2024/01/17 07:01:54;;;;;;;;;;;15.80;99.90;;;;;;5071870;28;20333;-68
2024/01/17 07:04:21;;;;;;;;;;;15.90;99.90;;;;;;5071858;28;19912;-64
2024/01/17 07:06:47;;;;;;;;;;;16.10;99.90;;;;;;5072133;28;19931;-68
2024/01/17 07:09:13;;;;;;;;;;;16.10;99.90;;;;;;5071709;28;20377;-68
2024/01/17 07:11:38;;;;;;;;;;;16.30;99.90;;;;;;5071346;28;19939;-68
2024/01/17 07:14:04;;;;;;;;;;;16.30;99.90;;;;;;5071566;28;19931;-68
2024/01/17 07:16:30;;;;;;;;;;;16.40;99.90;;;;;;5071209;28;20393;-68
2024/01/17 07:18:58;;;;;;;;;;;16.60;99.90;;;;;;5073253;28;20007;-68
2024/01/17 07:21:24;;;;;;;;;;;16.70;99.90;;;;;;5071995;28;20296;-68
2024/01/17 07:23:50;;;;;;;;;;;16.90;99.90;;;;;;5053614;28;19924;-68
2024/01/17 07:26:16;;;;;;;;;;;17.10;99.90;;;;;;5071058;28;19912;-67
2024/01/17 07:28:42;;;;;;;;;;;17.20;99.90;;;;;;5072333;28;19923;-69
2024/01/17 07:31:08;;;;;;;;;;;17.10;99.90;;;;;;5054479;28;19916;-68
2024/01/17 07:33:34;;;;;;;;;;;17.20;99.90;;;;;;5072172;28;19939;-68
2024/01/17 07:36:00;;;;;;;;;;;17.40;99.90;;;;;;5053690;28;19962;-70
2024/01/17 07:38:25;;;;;;;;;;;17.60;99.90;;;;;;5053928;28;19923;-68
2024/01/17 07:40:51;;;;;;;;;;;17.80;99.90;;;;;;5054332;28;20292;-68
2024/01/17 07:43:17;;;;;;;;;;;18.00;99.90;;;;;;5072280;28;19915;-68
2024/01/17 07:45:43;;;;;;;;;;;18.10;99.90;;;;;;5072193;28;19915;-72
2024/01/17 07:48:09;;;;;;;;;;;18.10;99.90;;;;;;5054177;28;19924;-70
2024/01/17 07:50:34;;;;;;;;;;;18.20;99.90;;;;;;5072114;28;19915;-69
2024/01/17 07:53:01;;;;;;;;;;;18.20;99.90;;;;;;5072078;28;19909;-69
2024/01/17 07:55:27;;;;;;;;;;;18.40;99.90;;;;;;5072043;28;19909;-66
2024/01/17 07:57:53;;;;;;;;;;;18.60;99.90;;;;;;5053901;28;19913;-69
2024/01/17 08:00:19;;;;;;;;;;;18.60;99.90;;;;;;5072064;28;19932;-69
2024/01/17 08:02:45;;;;;;;;;;;18.60;99.90;;;;;;5053159;28;20273;-68
2024/01/17 08:05:11;;;;;;;;;;;18.30;99.90;;;;;;5074630;28;19928;-68
2024/01/17 08:07:37;;;;;;;;;;;18.30;99.90;;;;;;5057484;28;20054;-69
2024/01/17 08:10:03;;;;;;;;;;;18.40;99.90;;;;;;5075285;28;19999;-68
2024/01/17 08:12:29;;;;;;;;;;;18.40;99.90;;;;;;5074467;28;19935;-68
2024/01/17 08:14:55;;;;;;;;;;;18.50;99.90;;;;;;5073933;28;19908;-67
2024/01/17 08:17:21;;;;;;;;;;;18.70;99.90;;;;;;5063960;28;19927;-68
2024/01/17 08:19:47;;;;;;;;;;;18.70;99.90;;;;;;5075148;28;19908;-68
2024/01/17 08:22:12;;;;;;;;;;;18.70;99.90;;;;;;5075089;28;19951;-69
2024/01/17 08:24:40;;;;;;;;;;;18.70;99.90;;;;;;5074962;28;20245;-69
2024/01/17 08:27:06;;;;;;;;;;;18.90;99.90;;;;;;5075628;28;19982;-68
2024/01/17 08:29:31;;;;;;;;;;;18.90;99.90;;;;;;5075313;28;20372;-68
2024/01/17 08:31:57;;;;;;;;;;;18.90;99.90;;;;;;5075419;28;20246;-69
2024/01/17 08:34:23;;;;;;;;;;;19.00;99.90;;;;;;5074859;28;19963;-69
2024/01/17 08:36:49;;;;;;;;;;;19.00;99.90;;;;;;5074925;28;19915;-70
2024/01/17 08:39:15;;;;;;;;;;;19.00;99.90;;;;;;5074847;28;19929;-70
2024/01/17 08:41:45;;;;;;;;;;;18.90;99.90;;;;;;5075250;28;20324;-70
2024/01/17 08:44:12;;;;;;;;;;;18.90;99.90;;;;;;5056886;28;19908;-69
2024/01/17 08:46:48;;;;;;;;;;;18.80;99.90;;;;;;5074710;28;19915;-68
2024/01/17 08:49:14;;;;;;;;;;;18.60;99.90;;;;;;5074302;28;19917;-67
2024/01/17 08:51:40;;;;;;;;;;;18.70;99.90;;;;;;5073740;28;19909;-68
2024/01/17 08:54:06;;;;;;;;;;;18.50;99.90;;;;;;5073979;28;19920;-68
2024/01/17 08:56:32;;;;;;;;;;;18.30;99.90;;;;;;5074451;28;19909;-69
2024/01/17 08:58:58;;;;;;;;;;;18.40;99.90;;;;;;5074253;28;19909;-68
2024/01/17 09:01:24;;;;;;;;;;;18.50;99.90;;;;;;5074514;28;19920;-70
2024/01/17 09:03:50;;;;;;;;;;;18.60;99.90;;;;;;5073858;28;20011;-69
2024/01/17 09:06:16;;;;;;;;;;;18.30;99.90;;;;;;5074108;28;19920;-68
2024/01/17 09:08:42;;;;;;;;;;;18.20;99.90;;;;;;5073134;28;19916;-68
2024/01/17 09:11:08;;;;;;;;;;;18.50;99.90;;;;;;5073789;28;19958;-68
2024/01/17 09:13:34;;;;;;;;;;;18.70;99.90;;;;;;5073700;28;19923;-68
2024/01/17 09:16:00;;;;;;;;;;;18.90;99.90;;;;;;5072244;28;20039;-68
2024/01/17 09:18:26;;;;;;;;;;;18.90;99.90;;;;;;5073790;28;20254;-68
2024/01/17 09:20:52;;;;;;;;;;;19.10;99.90;;;;;;5073525;28;19955;-69
2024/01/17 09:23:18;;;;;;;;;;;19.10;99.90;;;;;;5073082;28;19971;-69
2024/01/17 09:25:44;;;;;;;;;;;19.10;99.90;;;;;;5073011;28;19943;-68
2024/01/17 09:28:10;;;;;;;;;;;19.20;99.90;;;;;;5072980;28;20008;-70
2024/01/17 09:30:36;;;;;;;;;;;19.20;99.90;;;;;;5073341;28;19932;-67
2024/01/17 09:33:02;;;;;;;;;;;19.20;99.90;;;;;;5072939;28;19915;-68
2024/01/17 09:35:32;;;;;;;;;;;19.30;99.90;;;;;;5072823;28;19908;-67
2024/01/17 09:37:58;;;;;;;;;;;19.40;99.90;;;;;;5073400;28;19980;-68
2024/01/17 09:40:24;;;;;;;;;;;19.60;99.90;;;;;;5054263;28;20357;-68
2024/01/17 09:42:50;;;;;;;;;;;19.40;99.90;;;;;;5072854;28;19956;-68
2024/01/17 09:45:16;;;;;;;;;;;19.40;99.90;;;;;;5072928;28;20346;-69
2024/01/17 09:47:43;;;;;;;;;;;19.30;99.90;;;;;;5072721;28;19943;-68
2024/01/17 09:50:09;;;;;;;;;;;19.30;99.90;;;;;;5054082;28;20380;-68
2024/01/17 09:52:36;;;;;;;;;;;19.30;99.90;;;;;;5072001;28;19912;-68
2024/01/17 09:55:02;;;;;;;;;;;19.30;99.90;;;;;;5072148;28;19909;-67
2024/01/17 09:57:33;;;;;;;;;;;19.40;99.90;;;;;;5072474;28;20417;-68
2024/01/17 10:00:09;;;;;;;;;;;19.50;99.90;;;;;;5072792;28;19951;-68
2024/01/17 10:02:36;;;;;;;;;;;19.50;99.90;;;;;;5072577;28;19919;-69
2024/01/17 10:05:04;;;;;;;;;;;19.60;99.90;;;;;;5054292;28;20308;-69
2024/01/17 10:07:30;;;;;;;;;;;19.50;99.90;;;;;;5072475;28;20418;-68
2024/01/17 10:09:57;;;;;;;;;;;19.40;99.90;;;;;;5072194;28;19909;-68
2024/01/17 10:12:22;;;;;;;;;;;19.20;99.90;;;;;;5072602;28;19959;-69
2024/01/17 10:14:49;;;;;;;;;;;19.20;99.90;;;;;;5072259;28;19940;-69
2024/01/17 10:17:15;;;;;;;;;;;19.10;99.90;;;;;;5072644;28;19939;-70
2024/01/17 10:19:41;;;;;;;;;;;19.10;99.90;;;;;;5072604;28;19908;-68
2024/01/17 10:22:10;;;;;;;;;;;19.20;99.90;;;;;;5073198;28;20344;-68
2024/01/17 10:24:36;;;;;;;;;;;19.30;99.90;;;;;;5072056;28;20019;-69
2024/01/17 10:27:03;;;;;;;;;;;19.40;99.90;;;;;;5071720;28;20374;-69
2024/01/17 10:29:39;;;;;;;;;;;19.50;99.90;;;;;;5072062;28;19912;-68
2024/01/17 10:32:05;;;;;;;;;;;19.40;99.90;;;;;;5072404;28;20238;-67
2024/01/17 10:34:31;;;;;;;;;;;19.50;99.90;;;;;;5071926;28;19923;-68
2024/01/17 10:36:58;;;;;;;;;;;19.40;99.90;;;;;;5072590;28;20307;-67
2024/01/17 10:39:25;;;;;;;;;;;19.30;99.90;;;;;;5071422;28;20288;-68
2024/01/17 10:41:51;;;;;;;;;;;19.40;99.90;;;;;;5071054;28;19974;-69
2024/01/17 10:44:21;;;;;;;;;;;19.30;99.90;;;;;;5071037;28;19995;-68
2024/01/17 10:46:47;;;;;;;;;;;19.00;99.90;;;;;;5052802;28;19974;-66
2024/01/17 10:49:13;;;;;;;;;;;18.90;99.90;;;;;;5072146;28;19935;-69
2024/01/17 10:51:42;;;;;;;;;;;18.80;99.90;;;;;;5071699;28;19908;-68
2024/01/17 10:54:10;;;;;;;;;;;18.80;99.90;;;;;;5071798;28;19909;-66
2024/01/17 10:56:40;;;;;;;;;;;18.80;99.90;;;;;;5071597;28;20203;-67
2024/01/17 10:59:07;;;;;;;;;;;18.70;99.90;;;;;;5071991;28;19975;-65
2024/01/17 11:01:38;;;;;;;;;;;18.80;99.90;;;;;;5053433;28;20293;-66
2024/01/17 11:04:15;;;;;;;;;;;18.70;99.90;;;;;;5071271;28;19973;-66
2024/01/17 11:06:41;;;;;;;;;;;18.70;99.90;;;;;;5071550;28;19908;-66
2024/01/17 11:09:07;;;;;;;;;;;18.70;99.90;;;;;;5071537;28;20372;-65
2024/01/17 11:11:34;;;;;;;;;;;18.70;99.90;;;;;;5071954;28;19908;-70
2024/01/17 11:14:00;;;;;;;;;;;18.60;99.90;;;;;;5071525;28;19916;-68
2024/01/17 11:16:26;;;;;;;;;;;18.60;99.90;;;;;;5053078;28;20364;-68
2024/01/17 11:18:53;;;;;;;;;;;18.40;99.90;;;;;;5071959;28;19908;-69
2024/01/17 11:21:23;;;;;;;;;;;18.40;99.90;;;;;;5071789;28;19913;-70
2024/01/17 11:24:04;;;;;;;;;;;18.20;99.90;;;;;;5071530;28;20364;-69
2024/01/17 11:26:33;;;;;;;;;;;18.10;99.90;;;;;;5072511;28;20300;-68
2024/01/17 11:28:59;;;;;;;;;;;18.20;99.90;;;;;;5071328;28;19916;-68
2024/01/17 11:31:33;;;;;;;;;;;18.20;99.90;;;;;;5071293;28;19920;-66
2024/01/17 11:34:00;;;;;;;;;;;18.20;99.90;;;;;;5071535;28;19908;-68
2024/01/17 11:36:42;;;;;;;;;;;17.90;99.90;;;;;;5072021;28;20003;-69
2024/01/17 11:39:13;;;;;;;;;;;17.80;99.90;;;;;;5072880;28;20015;-67
2024/01/17 11:41:40;;;;;;;;;;;17.80;99.90;;;;;;5076020;28;19909;-68
2024/01/17 11:44:07;;;;;;;;;;;17.60;99.90;;;;;;5057495;28;19999;-67
2024/01/17 11:46:34;;;;;;;;;;;17.40;99.90;;;;;;5075535;28;19944;-69
2024/01/17 11:49:00;;;;;;;;;;;17.40;99.90;;;;;;5075170;28;19966;-69
2024/01/17 11:51:26;;;;;;;;;;;17.60;99.90;;;;;;5075025;28;20303;-68
2024/01/17 11:53:54;;;;;;;;;;;17.80;99.90;;;;;;5075542;28;19970;-67
2024/01/17 11:56:21;;;;;;;;;;;18.00;99.90;;;;;;5074808;28;19977;-67
2024/01/17 11:58:51;;;;;;;;;;;18.20;99.90;;;;;;5074822;28;19913;-68
2024/01/17 12:01:23;;;;;;;;;;;18.50;99.90;;;;;;5056620;28;19987;-70
2024/01/17 12:03:49;;;;;;;;;;;18.60;99.90;;;;;;5055915;28;20245;-66
2024/01/17 12:06:16;;;;;;;;;;;18.80;99.90;;;;;;5074360;28;20387;-69
2024/01/17 12:08:42;;;;;;;;;;;18.90;99.90;;;;;;5074754;28;19995;-67
2024/01/17 12:11:09;;;;;;;;;;;19.00;99.90;;;;;;5074630;28;19908;-68
2024/01/17 12:13:38;;;;;;;;;;;18.90;99.90;;;;;;5074305;28;19913;-69
2024/01/17 12:16:05;;;;;;;;;;;19.00;99.90;;;;;;5074041;28;19916;-68
2024/01/17 12:18:31;;;;;;;;;;;19.10;99.90;;;;;;5056749;28;19931;-68
2024/01/17 12:21:01;;;;;;;;;;;18.70;99.90;;;;;;5074942;28;19923;-68
2024/01/17 12:23:28;;;;;;;;;;;18.80;99.90;;;;;;5074737;28;19913;-68
2024/01/17 12:25:55;;;;;;;;;;;19.00;99.90;;;;;;5074757;28;19908;-68
2024/01/17 12:28:24;;;;;;;;;;;19.20;99.90;;;;;;5074824;28;19992;-69
2024/01/17 12:31:04;;;;;;;;;;;19.30;99.90;;;;;;5075081;28;19915;-68
2024/01/17 12:33:32;;;;;;;;;;;19.40;99.90;;;;;;5074149;28;19916;-68
2024/01/17 12:36:00;;;;;;;;;;;19.40;99.90;;;;;;5073228;28;20280;-68
2024/01/17 12:38:27;;;;;;;;;;;19.40;99.90;;;;;;5072326;28;19920;-67
2024/01/17 12:40:53;;;;;;;;;;;19.40;99.90;;;;;;5074173;28;20327;-65
2024/01/17 12:43:19;;;;;;;;;;;19.50;99.90;;;;;;5073518;28;20443;-68
2024/01/17 12:45:45;;;;;;;;;;;19.40;99.90;;;;;;5073980;28;19908;-68
2024/01/17 12:48:12;;;;;;;;;;;19.30;99.90;;;;;;5073684;28;20023;-67
2024/01/17 12:50:46;;;;;;;;;;;19.10;99.90;;;;;;5072933;28;19924;-66
2024/01/17 12:53:12;;;;;;;;;;;18.90;99.90;;;;;;5072303;28;19908;-68
2024/01/17 12:55:39;;;;;;;;;;;18.90;99.90;;;;;;5073435;28;19983;-68
2024/01/17 12:58:05;;;;;;;;;;;18.90;99.90;;;;;;5074451;28;19909;-69
2024/01/17 13:00:32;;;;;;;;;;;19.10;99.90;;;;;;5074058;28;19915;-69
2024/01/17 13:02:58;;;;;;;;;;;19.20;99.90;;;;;;5073987;28;19912;-69
2024/01/17 13:05:24;;;;;;;;;;;19.10;99.90;;;;;;5074599;28;19996;-70
2024/01/17 13:07:49;;;;;;;;;;;18.90;99.90;;;;;;5074011;28;19921;-70
2024/01/17 13:10:20;;;;;;;;;;;19.10;99.90;;;;;;5073701;28;19917;-68
2024/01/17 13:12:48;;;;;;;;;;;19.20;99.90;;;;;;5074052;28;19912;-64
2024/01/17 13:15:14;;;;;;;;;;;19.30;99.90;;;;;;5074053;28;19912;-69
2024/01/17 13:17:48;;;;;;;;;;;19.50;99.90;;;;;;5074092;28;19912;-69
2024/01/17 13:20:20;;;;;;;;;;;19.40;99.90;;;;;;5074233;28;20273;-71
2024/01/17 13:22:47;;;;;;;;;;;19.30;99.90;;;;;;5075034;28;19909;-69
2024/01/17 13:25:13;;;;;;;;;;;19.20;99.90;;;;;;5074108;28;19915;-69
2024/01/17 13:27:39;;;;;;;;;;;19.30;99.90;;;;;;5056183;28;20280;-69
2024/01/17 13:30:05;;;;;;;;;;;19.20;99.90;;;;;;5074284;28;20440;-70
2024/01/17 13:32:31;;;;;;;;;;;19.30;99.90;;;;;;5056715;28;19916;-69
2024/01/17 13:34:57;;;;;;;;;;;19.40;99.90;;;;;;5056326;28;20293;-69
2024/01/17 13:37:23;;;;;;;;;;;19.60;99.90;;;;;;5074174;28;19909;-69
2024/01/17 13:39:50;;;;;;;;;;;19.70;99.90;;;;;;5073921;28;20317;-69
2024/01/17 13:42:16;;;;;;;;;;;19.50;99.90;;;;;;5074058;28;20249;-69
2024/01/17 13:44:41;;;;;;;;;;;19.40;99.90;;;;;;5074082;28;19909;-70
2024/01/17 13:47:07;;;;;;;;;;;19.60;99.90;;;;;;5073877;28;19912;-70
2024/01/17 13:49:36;;;;;;;;;;;19.60;99.90;;;;;;5073621;28;19935;-69
2024/01/17 13:52:02;;;;;;;;;;;19.50;99.90;;;;;;5073463;28;19958;-69
2024/01/17 13:54:28;;;;;;;;;;;19.50;99.90;;;;;;5073955;28;19909;-67
2024/01/17 13:56:55;;;;;;;;;;;19.50;99.90;;;;;;5073646;28;20344;-69
2024/01/17 13:59:21;;;;;;;;;;;19.60;99.90;;;;;;5073664;28;19915;-69
2024/01/17 14:01:48;;;;;;;;;;;19.60;99.90;;;;;;5054595;28;19912;-68
2024/01/17 14:04:14;;;;;;;;;;;19.30;99.90;;;;;;5055156;28;20373;-69
2024/01/17 14:06:40;;;;;;;;;;;19.00;99.90;;;;;;5073055;28;19966;-70
2024/01/17 14:09:07;;;;;;;;;;;18.70;99.90;;;;;;5055902;28;20358;-69
2024/01/17 14:11:35;;;;;;;;;;;18.50;99.90;;;;;;5073827;28;19915;-70
2024/01/17 14:14:02;;;;;;;;;;;18.50;99.90;;;;;;5073873;28;19909;-69